Time;durP1;ratioP1;P1;durP2;ratioP2;P2;SDS_P1;SDS_P2;PMS_P1;PMS_P2;Temp;Humidity;BMP_temperature;BMP_pressure;BME280_temperature;BME280_humidity;BME280_pressure;Samples;Min_cycle;Max_cycle;Signal;HPM_P1;HPM_P2
2023/04/11 00:00:56;;;;;;;2.05;1.17;;;14.10;99.90;;;;;;5112182;28;20639;-84
2023/04/11 00:03:23;;;;;;;3.78;2.85;;;14.20;99.90;;;;;;5112580;28;20277;-86
2023/04/11 00:05:50;;;;;;;1.88;1.77;;;14.20;99.90;;;;;;5111984;28;20232;-84
2023/04/11 00:08:19;;;;;;;2.88;1.38;;;14.10;99.90;;;;;;5111365;28;20247;-76
2023/04/11 00:10:45;;;;;;;1.95;1.85;;;14.00;99.90;;;;;;5111730;28;20298;-83
2023/04/11 00:13:13;;;;;;;5.82;1.85;;;14.00;99.90;;;;;;5113131;28;20205;-84
2023/04/11 00:15:40;;;;;;;2.30;1.80;;;14.00;99.90;;;;;;5115219;28;20345;-83
2023/04/11 00:18:07;;;;;;;2.78;2.13;;;13.90;99.90;;;;;;5111665;28;20647;-82
2023/04/11 00:20:34;;;;;;;1.60;1.45;;;14.00;99.90;;;;;;5111891;28;20208;-83
2023/04/11 00:23:01;;;;;;;3.28;1.95;;;14.10;99.90;;;;;;5111014;28;20232;-84
2023/04/11 00:25:31;;;;;;;1.67;1.50;;;14.10;99.90;;;;;;5112982;28;20731;-81
2023/04/11 00:27:59;;;;;;;2.05;1.70;;;14.30;99.90;;;;;;5117948;28;20197;-72
2023/04/11 00:30:25;;;;;;;4.03;1.80;;;14.30;99.90;;;;;;5117827;28;20211;-77
2023/04/11 00:32:52;;;;;;;3.75;1.55;;;14.40;99.90;;;;;;5118455;28;20228;-81
2023/04/11 00:35:19;;;;;;;3.72;1.88;;;14.30;99.90;;;;;;5117562;28;20251;-81
2023/04/11 00:37:48;;;;;;;2.22;1.77;;;14.30;99.90;;;;;;5117714;28;20207;-81
2023/04/11 00:40:17;;;;;;;2.72;1.65;;;14.20;99.90;;;;;;5118487;28;20239;-86
2023/04/11 00:42:45;;;;;;;2.30;1.35;;;14.20;99.90;;;;;;5118584;28;20251;-84
2023/04/11 00:45:13;;;;;;;2.22;1.75;;;14.20;99.90;;;;;;5117792;28;20267;-82
2023/04/11 00:47:41;;;;;;;2.38;1.55;;;14.30;99.90;;;;;;5118951;28;20236;-83
2023/04/11 00:50:12;;;;;;;3.75;1.70;;;14.30;99.90;;;;;;5117546;28;20266;-80
2023/04/11 00:52:39;;;;;;;1.35;1.23;;;14.30;99.90;;;;;;5117580;28;20205;-81
2023/04/11 00:55:07;;;;;;;1.67;1.58;;;14.30;99.90;;;;;;5117652;28;20228;-80
2023/04/11 00:57:34;;;;;;;2.72;1.98;;;14.30;99.90;;;;;;5117852;28;20656;-81
2023/04/11 01:00:03;;;;;;;4.07;1.88;;;14.30;99.90;;;;;;5117496;28;20196;-82
2023/04/11 01:02:30;;;;;;;3.00;1.90;;;14.10;99.90;;;;;;5117804;28;20212;-79
2023/04/11 01:04:59;;;;;;;2.60;2.40;;;14.00;99.90;;;;;;5117169;28;20707;-71
2023/04/11 01:07:26;;;;;;;3.22;2.92;;;14.00;99.90;;;;;;5117661;28;20201;-72
2023/04/11 01:09:54;;;;;;;3.80;2.83;;;14.00;99.90;;;;;;5118184;28;20251;-76
2023/04/11 01:12:21;;;;;;;2.58;2.38;;;14.00;99.90;;;;;;5117750;28;20234;-72
2023/04/11 01:14:48;;;;;;;3.30;2.53;;;14.10;99.90;;;;;;5117646;28;20240;-76
2023/04/11 01:17:17;;;;;;;3.03;2.33;;;14.10;99.90;;;;;;5117074;28;20507;-76
2023/04/11 01:19:44;;;;;;;8.63;3.20;;;14.00;99.90;;;;;;5117784;28;20232;-75
2023/04/11 01:22:13;;;;;;;6.32;2.08;;;14.10;99.90;;;;;;5116920;28;20247;-75
2023/04/11 01:24:41;;;;;;;3.03;1.70;;;14.10;99.90;;;;;;5117469;28;20695;-74
2023/04/11 01:27:09;;;;;;;3.05;1.67;;;14.10;99.90;;;;;;5117132;28;20239;-75
2023/04/11 01:29:36;;;;;;;2.55;2.13;;;14.00;99.90;;;;;;5117350;28;20228;-73
2023/04/11 01:32:03;;;;;;;2.53;1.75;;;14.00;99.90;;;;;;5117325;28;20243;-72
2023/04/11 01:34:32;;;;;;;1.98;1.60;;;14.00;99.90;;;;;;5117575;28;20291;-78
2023/04/11 01:36:59;;;;;;;2.50;1.80;;;14.00;99.90;;;;;;5115229;28;20637;-80
2023/04/11 01:39:25;;;;;;;4.28;1.48;;;13.90;99.90;;;;;;5114177;28;20204;-78
2023/04/11 01:41:55;;;;;;;2.20;1.95;;;13.90;99.90;;;;;;5114344;28;20243;-77
2023/04/11 01:44:24;;;;;;;4.00;1.80;;;14.00;99.90;;;;;;5114299;28;20201;-76
2023/04/11 01:46:51;;;;;;;2.33;1.73;;;14.00;99.90;;;;;;5115207;28;20231;-86
2023/04/11 01:49:20;;;;;;;4.53;1.63;;;14.00;99.90;;;;;;5120044;28;20243;-73
2023/04/11 01:51:47;;;;;;;3.05;1.55;;;14.10;99.90;;;;;;5113959;28;20200;-73
2023/04/11 01:54:14;;;;;;;3.42;1.80;;;14.10;99.90;;;;;;5113502;28;20692;-74
2023/04/11 01:56:41;;;;;;;1.80;1.35;;;14.10;99.90;;;;;;5113966;28;20262;-75
2023/04/11 01:59:09;;;;;;;1.70;1.60;;;14.10;99.90;;;;;;5113337;28;20710;-72
2023/04/11 02:01:36;;;;;;;1.85;1.30;;;14.10;99.90;;;;;;5114044;28;20232;-78
2023/04/11 02:04:03;;;;;;;1.40;1.25;;;14.10;99.90;;;;;;5113443;28;20197;-81
2023/04/11 02:06:30;;;;;;;3.60;1.52;;;14.20;99.90;;;;;;5113760;28;20264;-84
2023/04/11 02:08:57;;;;;;;4.03;1.27;;;14.20;99.90;;;;;;5113577;28;20258;-77
2023/04/11 02:11:24;;;;;;;5.47;1.42;;;14.20;99.90;;;;;;5113641;28;20718;-77
2023/04/11 02:13:51;;;;;;;2.58;1.80;;;14.10;99.90;;;;;;5113834;28;20241;-81
2023/04/11 02:16:24;;;;;;;1.48;1.10;;;14.10;99.90;;;;;;5113314;28;20201;-78
2023/04/11 02:18:52;;;;;;;3.42;1.27;;;14.20;99.90;;;;;;5113667;28;20207;-80
2023/04/11 02:21:19;;;;;;;2.00;1.52;;;14.20;99.90;;;;;;5113093;28;20236;-78
2023/04/11 02:23:46;;;;;;;3.45;1.92;;;14.20;99.90;;;;;;5113388;28;20204;-77
2023/04/11 02:26:13;;;;;;;1.38;1.00;;;14.20;99.90;;;;;;5112870;28;20268;-84
2023/04/11 02:28:40;;;;;;;1.58;1.30;;;14.30;99.90;;;;;;5113697;28;20201;-83
2023/04/11 02:31:07;;;;;;;1.20;0.95;;;14.20;99.90;;;;;;5112838;28;20247;-80
2023/04/11 02:33:35;;;;;;;1.35;0.82;;;14.20;99.90;;;;;;5113021;28;20240;-80
2023/04/11 02:36:02;;;;;;;2.20;2.00;;;14.20;99.90;;;;;;5112789;28;20236;-78
2023/04/11 02:38:30;;;;;;;3.85;1.65;;;14.10;99.90;;;;;;5113064;28;20205;-79
2023/04/11 02:40:58;;;;;;;1.92;1.10;;;14.10;99.90;;;;;;5113023;28;20251;-73
2023/04/11 02:43:25;;;;;;;4.95;1.20;;;14.10;99.90;;;;;;5113464;28;20244;-79
2023/04/11 02:45:52;;;;;;;1.20;1.10;;;14.10;99.90;;;;;;5113322;28;20268;-80
2023/04/11 02:48:19;;;;;;;3.70;1.10;;;14.10;99.90;;;;;;5112255;28;20647;-78
2023/04/11 02:50:47;;;;;;;1.60;1.50;;;14.00;99.90;;;;;;5112826;28;20561;-78
2023/04/11 02:53:15;;;;;;;2.75;1.75;;;14.10;99.90;;;;;;5112304;28;20232;-77
2023/04/11 02:55:42;;;;;;;1.73;1.27;;;14.20;99.90;;;;;;5112844;28;20668;-79
2023/04/11 02:58:09;;;;;;;2.20;2.00;;;14.20;99.90;;;;;;5112581;28;20239;-79
2023/04/11 03:00:37;;;;;;;1.70;1.60;;;14.20;99.90;;;;;;5112698;28;20249;-80
2023/04/11 03:03:05;;;;;;;2.05;1.60;;;14.10;99.90;;;;;;5111990;28;20254;-75
2023/04/11 03:05:32;;;;;;;2.38;1.35;;;14.10;99.90;;;;;;5112395;28;20321;-78
2023/04/11 03:08:00;;;;;;;1.80;1.27;;;14.20;99.90;;;;;;5112201;28;20239;-81
2023/04/11 03:10:27;;;;;;;1.63;1.10;;;14.20;99.90;;;;;;5112559;28;20240;-81
2023/04/11 03:12:54;;;;;;;1.55;1.20;;;14.10;99.90;;;;;;5112752;28;20307;-78
2023/04/11 03:15:21;;;;;;;1.88;1.75;;;14.10;99.90;;;;;;5112340;28;20232;-77
2023/04/11 03:17:48;;;;;;;2.00;1.60;;;14.10;99.90;;;;;;5111845;28;20680;-80
2023/04/11 03:20:18;;;;;;;1.40;1.30;;;14.10;99.90;;;;;;5111781;28;20727;-78
2023/04/11 03:22:45;;;;;;;1.65;1.40;;;14.10;99.90;;;;;;5112364;28;20634;-77
2023/04/11 03:25:13;;;;;;;1.80;1.15;;;14.10;99.90;;;;;;5111761;28;20703;-76
2023/04/11 03:27:40;;;;;;;3.03;1.95;;;14.10;99.90;;;;;;5112142;28;20687;-74
2023/04/11 03:30:08;;;;;;;2.03;1.85;;;14.10;99.90;;;;;;5111714;28;20258;-80
2023/04/11 03:32:35;;;;;;;1.27;1.17;;;14.10;99.90;;;;;;5111936;28;20205;-79
2023/04/11 03:35:02;;;;;;;1.67;1.30;;;14.10;99.90;;;;;;5111836;28;20228;-78
2023/04/11 03:37:29;;;;;;;2.22;1.67;;;14.00;99.90;;;;;;5112127;28;20197;-79
2023/04/11 03:39:56;;;;;;;1.40;1.30;;;14.00;99.90;;;;;;5111889;28;20262;-80
2023/04/11 03:42:24;;;;;;;5.32;1.40;;;14.10;99.90;;;;;;5112182;28;20231;-82
2023/04/11 03:44:51;;;;;;;2.83;1.83;;;13.90;99.90;;;;;;5112164;28;20640;-82
2023/04/11 03:47:18;;;;;;;5.28;1.65;;;13.90;99.90;;;;;;5111082;28;20264;-78
2023/04/11 03:49:45;;;;;;;1.65;1.50;;;13.90;99.90;;;;;;5111670;28;20230;-77
2023/04/11 03:52:13;;;;;;;3.58;1.60;;;13.80;99.90;;;;;;5111309;28;20642;-77
2023/04/11 03:54:40;;;;;;;1.77;1.30;;;13.80;99.90;;;;;;5111918;28;20197;-79
2023/04/11 03:57:07;;;;;;;1.60;1.50;;;13.70;99.90;;;;;;5111445;28;20228;-77
2023/04/11 03:59:36;;;;;;;2.85;1.23;;;13.80;99.90;;;;;;5111716;28;20202;-78
2023/04/11 04:02:03;;;;;;;3.78;1.60;;;13.80;99.90;;;;;;5110465;28;20205;-75
2023/04/11 04:04:32;;;;;;;1.50;1.40;;;13.80;99.90;;;;;;5111587;28;20232;-72
2023/04/11 04:07:00;;;;;;;1.65;1.38;;;13.80;99.90;;;;;;5111227;28;20236;-72
2023/04/11 04:09:27;;;;;;;1.33;1.23;;;13.70;99.90;;;;;;5111553;28;20204;-74
2023/04/11 04:11:54;;;;;;;4.07;1.05;;;13.80;99.90;;;;;;5111649;28;20251;-77
2023/04/11 04:14:21;;;;;;;1.77;1.42;;;13.80;99.90;;;;;;5111344;28;20211;-78
2023/04/11 04:16:49;;;;;;;1.70;1.60;;;13.90;99.90;;;;;;5111358;28;20225;-78
2023/04/11 04:19:16;;;;;;;1.55;1.23;;;13.90;99.90;;;;;;5111179;28;20518;-77
2023/04/11 04:21:44;;;;;;;2.70;1.23;;;13.90;99.90;;;;;;5111553;28;20301;-79
2023/04/11 04:24:11;;;;;;;2.65;1.90;;;14.00;99.90;;;;;;5111038;28;20227;-79
2023/04/11 04:26:38;;;;;;;1.70;1.38;;;14.00;99.90;;;;;;5111266;28;20268;-77
2023/04/11 04:29:08;;;;;;;4.32;1.38;;;14.00;99.90;;;;;;5110649;28;20591;-78
2023/04/11 04:31:36;;;;;;;2.35;1.25;;;14.10;99.90;;;;;;5111132;28;20557;-75
2023/04/11 04:34:07;;;;;;;5.28;1.50;;;14.10;99.90;;;;;;5110724;28;20615;-76
2023/04/11 04:36:45;;;;;;;3.92;1.98;;;14.10;99.90;;;;;;5111118;28;20212;-77
2023/04/11 04:39:16;;;;;;;5.45;2.00;;;14.00;99.90;;;;;;5110734;28;20645;-79
2023/04/11 04:41:44;;;;;;;1.92;1.50;;;14.10;99.90;;;;;;5111127;28;20568;-78
2023/04/11 04:44:11;;;;;;;2.33;1.80;;;14.10;99.90;;;;;;5110746;28;20236;-78
2023/04/11 04:46:37;;;;;;;1.77;1.38;;;14.00;99.90;;;;;;5111164;28;20267;-78
2023/04/11 04:49:07;;;;;;;1.55;1.30;;;14.00;99.90;;;;;;5110692;28;20240;-79
2023/04/11 04:51:34;;;;;;;2.58;1.45;;;13.90;99.90;;;;;;5111180;28;20251;-78
2023/04/11 04:54:01;;;;;;;1.38;1.27;;;13.80;99.90;;;;;;5110108;28;20607;-80
2023/04/11 04:56:29;;;;;;;2.42;1.50;;;13.90;99.90;;;;;;5110808;28;20260;-78
2023/04/11 04:58:56;;;;;;;1.45;1.25;;;13.90;99.90;;;;;;5110641;28;20637;-79
2023/04/11 05:01:25;;;;;;;1.77;1.60;;;13.90;99.90;;;;;;5111049;28;20239;-79
2023/04/11 05:03:58;;;;;;;3.83;1.02;;;13.90;99.90;;;;;;5111049;28;20575;-79
2023/04/11 05:06:28;;;;;;;1.42;1.30;;;13.80;99.90;;;;;;5111146;28;20225;-78
2023/04/11 05:08:56;;;;;;;2.63;1.58;;;13.80;99.90;;;;;;5110973;28;20652;-81
2023/04/11 05:11:23;;;;;;;2.67;1.80;;;13.80;99.90;;;;;;5111212;28;20299;-81
2023/04/11 05:13:50;;;;;;;1.30;1.20;;;13.80;99.90;;;;;;5113543;28;20229;-77
2023/04/11 05:16:17;;;;;;;6.50;1.88;;;13.80;99.90;;;;;;5114344;28;20212;-80
2023/04/11 05:18:45;;;;;;;3.80;1.95;;;13.80;99.90;;;;;;5114831;28;20333;-78
2023/04/11 05:21:13;;;;;;;2.67;1.67;;;13.80;99.90;;;;;;5114156;28;20215;-78
2023/04/11 05:23:42;;;;;;;3.25;2.03;;;13.90;99.90;;;;;;5114511;28;20224;-80
2023/04/11 05:26:09;;;;;;;2.28;1.58;;;13.90;99.90;;;;;;5114222;28;20273;-80
2023/04/11 05:28:36;;;;;;;1.55;1.42;;;13.80;99.90;;;;;;5114465;28;20233;-79
2023/04/11 05:31:03;;;;;;;3.38;1.75;;;13.80;99.90;;;;;;5113977;28;20623;-79
2023/04/11 05:33:30;;;;;;;5.38;1.83;;;13.90;99.90;;;;;;5114225;28;20236;-78
2023/04/11 05:35:57;;;;;;;2.25;1.88;;;13.90;99.90;;;;;;5114319;28;20201;-77
2023/04/11 05:38:24;;;;;;;2.28;1.40;;;14.00;99.90;;;;;;5114807;28;20285;-77
2023/04/11 05:40:53;;;;;;;2.72;1.42;;;14.00;99.90;;;;;;5114766;28;20246;-77
2023/04/11 05:43:20;;;;;;;2.35;2.00;;;14.00;99.90;;;;;;5113683;28;20228;-79
2023/04/11 05:45:47;;;;;;;1.80;1.40;;;14.00;99.90;;;;;;5114045;28;20579;-79
2023/04/11 05:48:14;;;;;;;5.00;1.95;;;14.00;99.90;;;;;;5113678;28;20200;-78
2023/04/11 05:50:42;;;;;;;3.72;1.65;;;14.00;99.90;;;;;;5114011;28;20228;-78
2023/04/11 05:53:09;;;;;;;1.88;1.50;;;14.00;99.90;;;;;;5113786;28;20229;-79
2023/04/11 05:55:36;;;;;;;4.20;1.67;;;14.00;99.90;;;;;;5113943;28;20731;-82
2023/04/11 05:58:04;;;;;;;1.25;1.15;;;14.10;99.90;;;;;;5113194;28;20208;-79
2023/04/11 06:00:31;;;;;;;5.85;1.55;;;14.10;99.90;;;;;;5113951;28;20613;-82
2023/04/11 06:02:59;;;;;;;3.28;1.80;;;14.10;99.90;;;;;;5113748;28;20258;-81
2023/04/11 06:05:30;;;;;;;2.42;2.17;;;14.20;99.90;;;;;;5113962;28;20207;-80
2023/04/11 06:07:58;;;;;;;5.78;1.60;;;14.20;99.90;;;;;;5113669;28;20249;-73
2023/04/11 06:10:25;;;;;;;2.65;1.80;;;14.20;99.90;;;;;;5113654;28;20219;-75
2023/04/11 06:12:53;;;;;;;4.38;2.95;;;14.30;99.90;;;;;;5113648;28;20205;-74
2023/04/11 06:15:22;;;;;;;6.63;1.63;;;14.30;99.90;;;;;;5113709;28;20208;-78
2023/04/11 06:17:49;;;;;;;3.35;1.48;;;14.30;99.90;;;;;;5113405;28;20197;-81
2023/04/11 06:20:16;;;;;;;3.97;1.63;;;14.30;99.90;;;;;;5112849;28;20683;-76
2023/04/11 06:22:45;;;;;;;2.08;1.67;;;14.30;99.90;;;;;;5112427;28;20239;-81
2023/04/11 06:25:13;;;;;;;2.05;1.48;;;14.30;99.90;;;;;;5112133;28;20207;-82
2023/04/11 06:27:40;;;;;;;3.55;1.80;;;14.30;99.90;;;;;;5113229;28;20260;-81
2023/04/11 06:30:08;;;;;;;2.92;1.85;;;14.40;99.90;;;;;;5112910;28;20240;-80
2023/04/11 06:32:36;;;;;;;2.08;1.73;;;14.40;99.90;;;;;;5113073;28;20576;-80
2023/04/11 06:35:04;;;;;;;2.55;1.40;;;14.30;99.90;;;;;;5112699;28;20623;-80
2023/04/11 06:37:31;;;;;;;1.60;1.48;;;14.30;99.90;;;;;;5113231;28;20706;-80
2023/04/11 06:39:59;;;;;;;3.65;1.83;;;14.30;99.90;;;;;;5112557;28;20309;-78
2023/04/11 06:42:26;;;;;;;1.52;1.42;;;14.30;99.90;;;;;;5113587;28;20244;-84
2023/04/11 06:44:53;;;;;;;2.22;1.85;;;14.40;99.90;;;;;;5114213;28;20208;-89
2023/04/11 06:47:20;;;;;;;2.13;1.55;;;14.40;99.90;;;;;;5111014;28;20742;-78
2023/04/11 06:49:48;;;;;;;2.80;2.00;;;14.40;99.90;;;;;;5111829;28;20220;-79
2023/04/11 06:52:15;;;;;;;3.13;2.00;;;14.40;99.90;;;;;;5112144;28;20239;-79
2023/04/11 06:54:42;;;;;;;2.42;2.10;;;14.40;99.90;;;;;;5112474;28;20240;-78
2023/04/11 06:57:10;;;;;;;4.80;1.60;;;14.40;99.90;;;;;;5112556;28;20209;-78
2023/04/11 06:59:37;;;;;;;2.72;1.52;;;14.40;99.90;;;;;;5112919;28;20300;-79
2023/04/11 07:02:04;;;;;;;2.85;1.73;;;14.40;99.90;;;;;;5111769;28;20226;-76
2023/04/11 07:04:31;;;;;;;2.05;1.90;;;14.40;99.90;;;;;;5111939;28;20258;-76
2023/04/11 07:06:59;;;;;;;9.20;2.53;;;14.40;99.90;;;;;;5111999;28;20689;-75
2023/04/11 07:09:26;;;;;;;2.22;1.92;;;14.40;99.90;;;;;;5112311;28;20197;-77
2023/04/11 07:11:53;;;;;;;1.83;1.70;;;14.50;99.90;;;;;;5112456;28;20247;-77
2023/04/11 07:14:20;;;;;;;3.67;2.17;;;14.50;99.90;;;;;;5112529;28;20207;-77
2023/04/11 07:16:46;;;;;;;1.65;1.55;;;14.70;99.90;;;;;;5112320;28;20247;-78
2023/04/11 07:19:13;;;;;;;1.88;1.58;;;14.90;99.90;;;;;;5111874;28;20680;-79
2023/04/11 07:21:40;;;;;;;1.75;1.55;;;14.90;99.90;;;;;;5110930;27;20235;-77
2023/04/11 07:24:12;;;;;;;2.00;1.63;;;15.10;99.90;;;;;;5111002;28;20209;-77
2023/04/11 07:26:41;;;;;;;3.03;1.73;;;15.10;99.90;;;;;;5111862;28;20263;-78
2023/04/11 07:29:08;;;;;;;2.63;1.92;;;15.10;99.90;;;;;;5111915;28;20278;-79
2023/04/11 07:31:35;;;;;;;3.75;1.55;;;15.00;99.90;;;;;;5112155;28;20196;-78
2023/04/11 07:34:02;;;;;;;3.75;1.70;;;15.00;99.90;;;;;;5111641;28;20243;-79
2023/04/11 07:36:29;;;;;;;2.78;2.20;;;15.00;99.90;;;;;;5110928;28;20204;-79
2023/04/11 07:38:56;;;;;;;2.13;1.65;;;15.00;99.90;;;;;;5111931;28;20262;-77
2023/04/11 07:41:25;;;;;;;6.43;3.22;;;15.20;99.90;;;;;;5112198;28;20240;-78
2023/04/11 07:43:52;;;;;;;2.22;2.03;;;15.30;99.90;;;;;;5111739;27;20207;-80
2023/04/11 07:46:18;;;;;;;3.03;2.03;;;15.30;99.90;;;;;;5111331;28;20213;-78
2023/04/11 07:48:47;;;;;;;3.88;2.45;;;15.20;99.90;;;;;;5111026;28;20240;-78
2023/04/11 07:51:15;;;;;;;4.95;1.67;;;15.00;99.90;;;;;;5110479;28;20236;-80
2023/04/11 07:53:42;;;;;;;2.10;1.80;;;14.90;99.90;;;;;;5110661;27;20257;-78
2023/04/11 07:56:10;;;;;;;5.72;1.67;;;14.90;99.90;;;;;;5111235;28;20680;-77
2023/04/11 07:58:39;;;;;;;6.15;2.55;;;14.70;99.90;;;;;;5111626;28;20711;-79
2023/04/11 08:01:07;;;;;;;4.03;1.40;;;14.70;99.90;;;;;;5111023;28;20201;-76
2023/04/11 08:03:34;;;;;;;4.28;1.90;;;14.70;99.90;;;;;;5110894;28;20212;-78
2023/04/11 08:06:01;;;;;;;5.00;2.45;;;14.80;99.90;;;;;;5111426;28;20204;-77
2023/04/11 08:08:28;;;;;;;2.95;2.65;;;14.90;99.90;;;;;;5111214;28;20690;-77
2023/04/11 08:10:55;;;;;;;4.97;2.85;;;14.90;99.90;;;;;;5110890;28;20692;-76
2023/04/11 08:13:22;;;;;;;2.88;2.03;;;14.90;99.90;;;;;;5111424;28;20239;-76
2023/04/11 08:15:50;;;;;;;8.05;2.30;;;15.00;99.90;;;;;;5111175;28;20238;-78
2023/04/11 08:18:20;;;;;;;6.15;2.53;;;15.00;99.90;;;;;;5111164;28;20221;-76
2023/04/11 08:20:47;;;;;;;5.80;1.65;;;15.10;99.90;;;;;;5110882;28;20295;-78
2023/04/11 08:23:14;;;;;;;3.08;1.75;;;15.20;99.90;;;;;;5110527;28;20244;-76
2023/04/11 08:25:41;;;;;;;4.00;2.03;;;15.20;99.90;;;;;;5111104;28;20651;-77
2023/04/11 08:28:10;;;;;;;2.67;1.90;;;15.20;99.90;;;;;;5109402;28;20228;-77
2023/04/11 08:30:37;;;;;;;3.13;1.70;;;15.40;99.90;;;;;;5110988;28;20216;-78
2023/04/11 08:33:08;;;;;;;5.03;2.90;;;15.60;99.90;;;;;;5110571;28;20266;-76
2023/04/11 08:35:35;;;;;;;2.80;1.75;;;15.90;99.90;;;;;;5110950;28;20650;-77
2023/04/11 08:38:02;;;;;;;2.72;1.90;;;16.40;99.90;;;;;;5110629;28;20660;-77
2023/04/11 08:40:29;;;;;;;3.80;1.60;;;16.20;99.90;;;;;;5111231;28;20205;-77
2023/04/11 08:42:59;;;;;;;7.30;1.88;;;16.00;99.90;;;;;;5111640;28;20209;-78
2023/04/11 08:45:26;;;;;;;2.03;1.77;;;16.20;99.90;;;;;;5109123;28;20303;-76
2023/04/11 08:47:53;;;;;;;2.47;2.25;;;16.60;99.90;;;;;;5114158;28;20293;-76
2023/04/11 08:50:22;;;;;;;3.25;1.75;;;16.70;99.90;;;;;;5114782;28;20201;-76
2023/04/11 08:52:50;;;;;;;3.33;1.55;;;16.80;99.90;;;;;;5115247;28;20228;-74
2023/04/11 08:55:17;;;;;;;1.50;1.35;;;16.70;99.90;;;;;;5113852;28;20236;-77
2023/04/11 08:57:44;;;;;;;4.25;2.00;;;16.60;99.90;;;;;;5113818;27;20455;-72
2023/04/11 09:00:13;;;;;;;6.88;2.08;;;16.50;99.90;;;;;;5115009;28;20312;-72
2023/04/11 09:02:58;;;;;;;2.50;1.88;;;16.60;99.90;;;;;;5111020;28;20204;-77
2023/04/11 09:05:28;;;;;;;5.38;2.17;;;16.80;99.90;;;;;;5099394;28;20224;-73
2023/04/11 09:07:56;;;;;;;2.17;1.45;;;17.00;99.90;;;;;;5113933;28;20232;-77
2023/04/11 09:10:24;;;;;;;2.88;1.80;;;17.20;99.90;;;;;;5115017;28;20220;-75
2023/04/11 09:12:53;;;;;;;10.57;2.03;;;17.10;99.90;;;;;;5115356;28;20228;-80
2023/04/11 09:15:22;;;;;;;3.45;1.50;;;17.00;99.90;;;;;;5114826;28;20217;-82
2023/04/11 09:17:49;;;;;;;4.43;2.28;;;16.70;99.90;;;;;;5115216;28;20228;-87
2023/04/11 09:20:18;;;;;;;1.92;1.52;;;16.30;99.90;;;;;;5114484;28;20207;-78
2023/04/11 09:22:49;;;;;;;4.60;1.60;;;16.30;99.90;;;;;;5114822;28;20652;-77
2023/04/11 09:25:17;;;;;;;5.72;3.05;;;16.40;99.90;;;;;;5113018;27;20645;-81
2023/04/11 09:27:43;;;;;;;3.60;1.80;;;16.40;99.90;;;;;;5114071;27;20723;-79
2023/04/11 09:30:23;;;;;;;12.90;3.78;;;16.30;99.90;;;;;;5114350;28;20232;-83
2023/04/11 09:32:51;;;;;;;2.38;1.80;;;17.10;99.90;;;;;;5114570;28;20236;-78
2023/04/11 09:35:21;;;;;;;2.28;1.33;;;17.40;99.90;;;;;;5114121;28;20664;-79
2023/04/11 09:37:52;;;;;;;3.35;1.70;;;17.10;99.90;;;;;;5114971;28;20269;-89
2023/04/11 09:40:21;;;;;;;2.67;1.85;;;17.10;99.90;;;;;;5112724;28;20249;-80
2023/04/11 09:42:49;;;;;;;3.80;2.22;;;17.00;99.90;;;;;;5114489;27;20211;-81
2023/04/11 09:45:18;;;;;;;2.40;1.98;;;18.10;99.90;;;;;;5114254;28;20240;-82
2023/04/11 09:47:45;;;;;;;2.13;1.92;;;20.80;99.90;;;;;;5123820;27;20232;-85
2023/04/11 09:50:12;;;;;;;6.10;2.03;;;20.60;99.90;;;;;;5118521;27;20207;-73
2023/04/11 09:52:41;;;;;;;2.85;1.48;;;20.40;99.90;;;;;;5113746;28;20236;-74
2023/04/11 09:55:11;;;;;;;2.08;1.85;;;19.30;99.90;;;;;;5113712;28;20274;-73
2023/04/11 09:57:44;;;;;;;2.28;1.38;;;18.90;99.90;;;;;;5112092;27;20215;-75
2023/04/11 10:00:15;;;;;;;3.78;1.65;;;18.90;99.90;;;;;;5111732;27;20680;-71
2023/04/11 10:02:44;;;;;;;3.00;1.80;;;18.30;99.90;;;;;;5112448;28;20201;-73
2023/04/11 10:05:12;;;;;;;4.93;2.63;;;19.50;99.90;;;;;;5112533;27;20208;-74
2023/04/11 10:07:48;;;;;;;4.10;1.52;;;19.10;99.90;;;;;;5112191;27;20228;-83
2023/04/11 10:10:21;;;;;;;2.05;1.40;;;19.40;99.90;;;;;;5112724;28;20255;-82
2023/04/11 10:12:48;;;;;;;2.08;1.30;;;18.50;99.90;;;;;;5114014;28;20258;-78
2023/04/11 10:15:16;;;;;;;3.17;1.27;;;18.10;99.90;;;;;;5114634;28;20634;-83
2023/04/11 10:18:04;;;;;;;5.45;2.58;;;18.10;99.90;;;;;;5112530;28;20228;-85
2023/04/11 10:20:48;;;;;;;1.70;1.45;;;18.10;99.90;;;;;;5113054;28;20300;-81
2023/04/11 10:23:15;;;;;;;5.35;2.42;;;18.40;99.90;;;;;;5111936;28;20212;-82
2023/04/11 10:25:52;;;;;;;5.70;2.50;;;18.60;99.90;;;;;;5112579;28;20285;-77
2023/04/11 10:28:37;;;;;;;6.45;1.83;;;21.30;99.90;;;;;;5112323;28;20247;-75
2023/04/11 10:31:06;;;;;;;6.07;2.58;;;21.20;99.90;;;;;;5112540;28;20299;-74
2023/04/11 10:33:34;;;;;;;3.25;2.05;;;21.10;99.90;;;;;;5112703;28;20686;-77
2023/04/11 10:36:04;;;;;;;7.03;1.90;;;20.30;99.90;;;;;;5112851;28;20287;-75
2023/04/11 10:38:50;;;;;;;3.33;1.55;;;19.90;99.90;;;;;;5112924;28;20208;-75
2023/04/11 10:41:27;;;;;;;3.33;1.80;;;18.90;99.90;;;;;;5108948;28;20637;-77
2023/04/11 10:44:12;;;;;;;4.20;1.80;;;18.30;99.90;;;;;;5111387;28;20220;-74
2023/04/11 10:46:45;;;;;;;3.95;1.77;;;18.40;99.90;;;;;;5112555;28;20224;-75
2023/04/11 10:49:12;;;;;;;2.80;1.60;;;19.00;99.90;;;;;;5111923;28;20738;-74
2023/04/11 10:51:39;;;;;;;4.32;2.45;;;19.10;99.90;;;;;;5112266;28;20232;-75
2023/04/11 10:54:23;;;;;;;2.42;1.38;;;19.70;99.90;;;;;;5112286;28;20593;-76
2023/04/11 10:56:56;;;;;;;3.25;1.30;;;20.00;99.90;;;;;;5112694;28;20281;-77
2023/04/11 10:59:57;;;;;;;3.95;1.58;;;19.60;99.90;;;;;;5111934;28;20715;-79
2023/04/11 11:02:36;;;;;;;6.10;2.28;;;19.20;99.90;;;;;;5106949;28;20679;-75
2023/04/11 11:05:18;;;;;;;4.65;1.58;;;18.40;99.90;;;;;;5112153;28;20223;-75
2023/04/11 11:07:49;;;;;;;8.23;1.95;;;18.60;1.00;;;;;;5111127;28;20274;-75
2023/04/11 11:10:34;;;;;;;5.85;1.92;;;18.80;99.90;;;;;;5111966;28;20223;-76
2023/04/11 11:13:02;;;;;;;8.05;2.35;;;18.90;99.90;;;;;;5111801;28;20291;-76
2023/04/11 11:15:29;;;;;;;2.65;1.40;;;19.00;99.90;;;;;;5111234;28;20211;-79
2023/04/11 11:17:56;;;;;;;3.33;1.45;;;19.60;99.90;;;;;;5112246;28;20240;-79
2023/04/11 11:20:24;;;;;;;6.22;2.78;;;20.00;99.90;;;;;;5112487;28;20232;-78
2023/04/11 11:23:01;;;;;;;1.95;1.48;;;19.70;99.90;;;;;;5112522;28;20247;-80
2023/04/11 11:25:28;;;;;;;4.53;1.85;;;20.50;99.90;;;;;;5111847;28;20232;-78
2023/04/11 11:28:06;;;;;;;1.95;1.50;;;21.00;99.90;;;;;;5112584;28;20319;-78
2023/04/11 11:30:34;;;;;;;1.77;1.20;;;20.50;99.90;;;;;;5111991;28;20212;-80
2023/04/11 11:33:16;;;;;;;1.95;0.90;;;20.60;99.90;;;;;;5111912;28;20239;-78
2023/04/11 11:35:45;;;;;;;3.15;1.55;;;20.70;99.90;;;;;;5112110;28;20205;-79
2023/04/11 11:38:12;;;;;;;3.92;1.30;;;20.20;99.90;;;;;;5111427;28;20262;-82
2023/04/11 11:40:39;;;;;;;5.72;1.60;;;19.80;99.90;;;;;;5112277;28;20225;-80
2023/04/11 11:43:08;;;;;;;2.97;1.42;;;20.40;99.90;;;;;;5111632;28;20612;-86
2023/04/11 11:45:35;;;;;;;1.35;1.25;;;20.30;99.90;;;;;;5111781;28;20205;-80
2023/04/11 11:48:02;;;;;;;3.50;1.27;;;20.00;99.90;;;;;;5111052;28;20229;-81
2023/04/11 11:50:30;;;;;;;3.80;1.60;;;20.80;99.90;;;;;;5111466;28;20212;-82
2023/04/11 11:53:11;;;;;;;4.65;1.92;;;21.10;99.90;;;;;;5111447;28;20247;-75
2023/04/11 11:55:39;;;;;;;3.08;1.40;;;20.80;99.90;;;;;;5110722;28;20200;-78
2023/04/11 11:58:07;;;;;;;2.97;1.73;;;20.30;99.90;;;;;;5110081;28;20299;-80
2023/04/11 12:00:37;;;;;;;3.92;1.88;;;20.50;99.90;;;;;;5111077;28;20252;-82
2023/04/11 12:03:05;;;;;;;3.85;1.60;;;20.00;99.90;;;;;;5110722;28;20636;-79
2023/04/11 12:05:33;;;;;;;4.63;1.90;;;20.00;99.90;;;;;;5111368;28;20289;-79
2023/04/11 12:08:02;;;;;;;7.07;2.47;;;20.50;99.90;;;;;;5110668;28;20727;-79
2023/04/11 12:10:39;;;;;;;1.50;0.90;;;20.80;99.90;;;;;;5111360;28;20244;-81
2023/04/11 12:13:15;;;;;;;6.60;2.45;;;20.60;99.90;;;;;;5110278;28;20253;-79
2023/04/11 12:15:46;;;;;;;2.50;1.48;;;20.20;99.90;;;;;;5107266;28;20218;-81
2023/04/11 12:18:13;;;;;;;4.93;1.88;;;20.30;99.90;;;;;;5108974;28;20223;-79
2023/04/11 12:20:40;;;;;;;3.38;1.48;;;20.10;99.90;;;;;;5109276;28;20201;-79
2023/04/11 12:23:07;;;;;;;2.25;1.48;;;20.00;99.90;;;;;;5110601;28;20280;-81
2023/04/11 12:25:34;;;;;;;2.22;1.20;;;20.20;99.90;;;;;;5110792;28;20236;-79
2023/04/11 12:28:01;;;;;;;1.98;1.15;;;20.40;99.90;;;;;;5110429;28;20671;-78
2023/04/11 12:30:29;;;;;;;3.42;1.90;;;20.90;99.90;;;;;;5111520;28;20613;-81
2023/04/11 12:32:56;;;;;;;3.72;1.90;;;20.90;99.90;;;;;;5111333;28;20201;-85
2023/04/11 12:35:23;;;;;;;3.00;1.48;;;20.80;99.90;;;;;;5111643;28;20247;-81
2023/04/11 12:37:50;;;;;;;1.23;1.13;;;20.40;99.90;;;;;;5110963;28;20585;-80
2023/04/11 12:40:17;;;;;;;1.90;1.45;;;20.50;99.90;;;;;;5110866;28;20630;-80
2023/04/11 12:42:47;;;;;;;1.70;1.38;;;21.10;99.90;;;;;;5110928;28;20192;-81
2023/04/11 12:45:14;;;;;;;2.92;1.48;;;21.10;99.90;;;;;;5110003;28;20228;-82
2023/04/11 12:47:43;;;;;;;4.35;1.33;;;21.10;99.90;;;;;;5122228;28;20211;-81
2023/04/11 12:50:10;;;;;;;5.38;2.30;;;21.00;99.90;;;;;;5110820;28;20268;-80
2023/04/11 12:52:37;;;;;;;3.60;2.22;;;21.00;99.90;;;;;;5110226;28;20209;-76
2023/04/11 12:55:06;;;;;;;2.67;1.30;;;20.80;99.90;;;;;;5110370;28;20207;-76